Nickajack Observed Data For Previous 48 Hours

Caption
Day and Hour Reservoir Elevation (behind dam)* Tailwater Elevation (below dam)* Average Hourly Discharge*
1/15/2019 1 AM CST 632.29 602.93 80,327
1/15/2019 2 AM CST 632.19 602.67 80,206
1/15/2019 3 AM CST 632.15 602.52 80,390
1/15/2019 4 AM CST 632.12 602.41 80,495
1/15/2019 5 AM CST 632.07 602.32 80,571
1/15/2019 6 AM CST 632.02 602.26 80,777
1/15/2019 7 AM CST 632.21 602.21 80,848
1/15/2019 8 AM CST 632.34 602.19 81,152
1/15/2019 9 AM CST 632.48 602.16 81,242
1/15/2019 10 AM CST 632.66 602.14 81,495
1/15/2019 11 AM CST 632.83 602.13 81,711
1/15/2019 12 PM CST 632.78 602.13 81,804
1/15/2019 1 PM CST 632.74 602.11 81,857
1/15/2019 2 PM CST 632.71 602.11 81,830
1/15/2019 3 PM CST 632.58 602.09 81,745
1/15/2019 4 PM CST 632.49 602.08 81,646
1/15/2019 5 PM CST 632.42 602.07 81,450
1/15/2019 6 PM CST 632.43 602.07 81,608
1/15/2019 7 PM CST 632.61 602.05 81,623
1/15/2019 8 PM CST 632.72 602.06 81,783
1/15/2019 9 PM CST 632.83 602.05 81,854
1/15/2019 10 PM CST 632.88 602.04 81,925
1/15/2019 11 PM CST 632.95 602.04 82,052
1/16/2019 12 AM CST 633.01 602.05 81,989
1/16/2019 1 AM CST 633.06 602.04 82,208
1/16/2019 2 AM CST 633.12 602.03 82,163
1/16/2019 3 AM CST 633.11 602.05 82,217
1/16/2019 4 AM CST 633.14 602.04 82,185
1/16/2019 5 AM CST 632.92 602.91 94,078
1/16/2019 6 AM CST 632.75 603.23 100,548
1/16/2019 7 AM CST 632.85 603.41 100,376
1/16/2019 8 AM CST 632.90 603.53 100,362
1/16/2019 9 AM CST 632.96 603.63 100,386
1/16/2019 10 AM CST 632.97 603.69 100,251
1/16/2019 11 AM CST 632.82 603.72 100,106
1/16/2019 12 PM CST 632.68 603.76 100,021
1/16/2019 1 PM CST 632.48 603.78 99,880
1/16/2019 2 PM CST 632.25 603.78 99,562
1/16/2019 3 PM CST 632.27 603.00 88,576
1/16/2019 4 PM CST 632.22 602.72 81,462
1/16/2019 5 PM CST 632.19 602.56 81,716
1/16/2019 6 PM CST 632.24 602.44 81,793
1/16/2019 7 PM CST 632.34 602.37 82,029
1/16/2019 8 PM CST 632.44 602.30 82,369
1/16/2019 9 PM CST 632.56 602.27 82,486
1/16/2019 10 PM CST 632.65 602.24 82,591
1/16/2019 11 PM CST 632.69 602.20 82,673
1/17/2019 12 AM CST 632.70 602.23 82,759
1/17/2019 1 AM CST 632.61 602.21 82,800
1/17/2019 2 AM CST 632.61 602.16 82,782
1/17/2019 3 AM CST 632.53 602.12 82,750
1/17/2019 4 AM CST 632.49 602.12 82,772
1/17/2019 5 AM CST 632.42 602.11 82,530
1/17/2019 6 AM CST 632.20 602.68 90,220
1/17/2019 7 AM CST 632.18 602.87 94,185
1/17/2019 8 AM CST 632.15 603.00 94,148
1/17/2019 9 AM CST 632.14 603.06 94,091
1/17/2019 10 AM CST 632.10 603.12 93,952
1/17/2019 11 AM CST 632.08 603.17 93,972
1/17/2019 12 PM CST 632.06 603.21 93,904
1/17/2019 1 PM CST 632.04 603.22 93,870
1/17/2019 2 PM CST 632.02 603.23 93,797
1/17/2019 3 PM CST 632.01 603.25 93,753
1/17/2019 4 PM CST 631.99 603.26 93,702
1/17/2019 5 PM CST 631.96 603.25 93,671
1/17/2019 6 PM CST 631.94 603.28 93,677
1/17/2019 7 PM CST 632.17 602.83 91,029
1/17/2019 8 PM CST 632.28 602.47 79,329
1/17/2019 9 PM CST 632.31 602.30 79,615
1/17/2019 10 PM CST 632.42 602.18 79,977

Elevations are in feet above sea level. Discharges are in cubic feet per second and are reported at the end of the hour.